Armstrong Creek, Wisconsin
Current Conditions -  °F | °C
As of 5:54 PM on Wednesday 28 Jan 2015 (Local Time) from KIMT Reporting Station
Broken Clouds Broken Clouds  
Wind Chill: 17°   Ceiling: 1600
Heat Index: 27°   Visibility: 10mi
Dew Point: 21°   Wind: 12mph
Humidity: 78%   Direction: 140°SE
Pressure: 29.92"   Gusts: NA
Location:  45.66°N, 88.45°W
Report Text: KIMT 282354Z AUTO 14010KT 10SM BKN016 M03/M06 A2992 RMK AO2 SLP150 T10281061 11017 21028 56020
Loading
Personal Weather Stations






























Interactive Weather Map New forecast layout! Learn more

10-Day Weather Forecast

Advertisements
Track Severe Weather on mobile